Flight Track Log - Related Links

Times and Time Zones

All times are in EDT time to prevent confusion due to time zone crossing. See the LOG6844 flight status page for this flight to view local times or setup timezone preferences in your user account.

Time Position Orientation Groundspeed Altitude Reporting Facility
EDT Latitude Longitude Course Direction KTS MPH feet Rate Location/Type
Wed 05:06:57 AM 55.5002 -5.6388 44° Northeast 1 1 3,100  Level FlightAware UK
Wed 05:07:33 AM 55.5160 -5.6119 44° Northeast 1 1 3,600 833 Climbing FlightAware UK
Wed 05:08:45 AM 55.5471 -5.5548 46° Northeast 1 1 4,600 722 Climbing FlightAware UK
Wed 05:09:21 AM 55.5629 -5.5260 46° Northeast 1 1 4,900 308 Climbing FlightAware UK
Wed 05:10:03 AM 55.5837 -5.4858 48° Northeast 1 1 5,000 71 Climbing FlightAware UK
Wed 05:10:45 AM 55.6054 -5.4458 46° Northeast 1 1 5,000  Level FlightAware UK
Wed 05:11:27 AM 55.6276 -5.4035 47° Northeast 1 1 5,000 -48 Level FlightAware UK
Wed 05:12:51 AM 55.6725 -5.3216 46° Northeast 1 1 4,900 -50 Descending FlightAware UK
Wed 05:13:27 AM 55.6919 -5.2869 45° Northeast 1 1 4,900 63 Level FlightAware UK
Wed 05:14:27 AM 55.7220 -5.2300 47° Northeast 1 1 5,000 67 Climbing FlightAware UK
Wed 05:14:57 AM 55.7360 -5.2009 50° Northeast 1 1 5,000  Level FlightAware UK
Wed 05:15:45 AM 55.7606 -5.1558 46° Northeast 1 1 5,000  Level FlightAware UK
Wed 05:16:27 AM 55.7819 -5.1151 47° Northeast 1 1 5,000 -167 Level FlightAware UK
Wed 05:16:57 AM 55.7942 -5.0826 56° Northeast 1 1 4,800 -71 Descending FlightAware UK
Wed 05:17:51 AM 55.8128 -5.0206 62° Northeast 1 1 4,900 125 Climbing FlightAware UK
Wed 05:18:33 AM 55.8267 -4.9734 62° Northeast 1 1 5,000 67 Climbing FlightAware UK
Wed 05:19:21 AM 55.8424 -4.9186 63° Northeast 1 1 5,000  Level FlightAware UK
Wed 05:19:57 AM 55.8539 -4.8769 64° Northeast 1 1 5,000 -167 Level FlightAware UK
Wed 05:20:33 AM 55.8655 -4.8351 64° Northeast 1 1 4,800 -333 Descending FlightAware UK
Wed 05:21:09 AM 55.8774 -4.7893 65° Northeast 1 1 4,600 -462 Descending FlightAware UK
Wed 05:21:51 AM 55.8907 -4.7362 66° East 1 1 4,200 -538 Descending FlightAware UK
Wed 05:22:27 AM 55.9025 -4.6911 65° Northeast 1 1 3,900 -538 Descending FlightAware UK
Wed 05:23:09 AM 55.9140 -4.6339 70° East 1 1 3,500 -444 Descending FlightAware UK
Wed 05:24:15 AM 55.9320 -4.5490 69° East 1 1 3,100 -353 Descending FlightAware UK
Wed 05:24:51 AM 55.9421 -4.5024 69° East 1 1 2,900 -77 Descending FlightAware UK
Wed 05:25:33 AM 55.9544 -4.4506 67° East 1 1 3,000 63 Climbing FlightAware UK
Wed 05:26:27 AM 55.9700 -4.3868 66° East 1 1 3,000  Level FlightAware UK
Wed 05:27:03 AM 55.9799 -4.3454 67° East 1 1 3,000  Level FlightAware UK
Wed 05:27:39 AM 55.9803 -4.3023 89° East 1 1 3,000 -500 Level FlightAware UK
Wed 05:28:39 AM 55.9502 -4.2956 173° South 1 1 2,200 -833 Descending FlightAware UK
Wed 05:30:03 AM 55.9164 -4.3504 222° Southwest 1 1 1,000 -800 Descending FlightAware UK
Wed 05:30:39 AM 55.9051 -4.3716 227° Southwest 1 1 600 -583 Descending FlightAware UK
Wed 05:31:15 AM 55.8958 -4.3890 226° Southwest 1 1 300 -333 Descending FlightAware UK
Wed 05:32:09 AM 55.8833 -4.4121 226° Southwest 1 1 100 -222 Descending FlightAware UK
Wed 05:34:00 AM 55.8719 -4.4331 226° Southwest  Level Estimated
Wed 05:41:00 AM 55.8719 -4.4331 29° Northeast  Level Estimated
Wed 05:42:00 AM 55.8719 -4.4331 29° Northeast  Level Estimated
Wed 05:43:00 AM 55.8719 -4.4331 29° Northeast  Level Estimated
Wed 05:44:00 AM 55.8719 -4.4331 29° Northeast  Level Estimated
Wed 05:45:00 AM 55.8719 -4.4331 29° Northeast  Level Estimated

Login

Don't have an account? Register now (free) for customized features, flight alerts, and more!